sensor_id;sensor_type;location;lat;lon;timestamp;P1;durP1;ratioP1;P2;durP2;ratioP2
59960;SDS011;55902;-37.980;-63.602;2023-04-25T00:00:36;14.55;;;5.80;;
59960;SDS011;55902;-37.980;-63.602;2023-04-25T00:03:03;11.13;;;5.05;;
59960;SDS011;55902;-37.980;-63.602;2023-04-25T00:05:31;7.63;;;5.00;;
59960;SDS011;55902;-37.980;-63.602;2023-04-25T00:07:58;7.90;;;5.57;;
59960;SDS011;55902;-37.980;-63.602;2023-04-25T00:10:25;9.70;;;5.57;;
59960;SDS011;55902;-37.980;-63.602;2023-04-25T00:12:52;11.80;;;5.53;;
59960;SDS011;55902;-37.980;-63.602;2023-04-25T00:15:19;7.95;;;4.57;;
59960;SDS011;55902;-37.980;-63.602;2023-04-25T00:17:46;6.47;;;4.72;;
59960;SDS011;55902;-37.980;-63.602;2023-04-25T00:20:13;6.00;;;4.88;;
59960;SDS011;55902;-37.980;-63.602;2023-04-25T00:22:41;8.77;;;4.82;;
59960;SDS011;55902;-37.980;-63.602;2023-04-25T00:25:08;8.40;;;4.68;;
59960;SDS011;55902;-37.980;-63.602;2023-04-25T00:27:35;10.63;;;5.50;;
59960;SDS011;55902;-37.980;-63.602;2023-04-25T00:30:02;8.05;;;4.80;;
59960;SDS011;55902;-37.980;-63.602;2023-04-25T00:32:29;8.55;;;4.90;;
59960;SDS011;55902;-37.980;-63.602;2023-04-25T00:34:56;9.25;;;5.00;;
59960;SDS011;55902;-37.980;-63.602;2023-04-25T00:37:24;7.30;;;5.10;;
59960;SDS011;55902;-37.980;-63.602;2023-04-25T00:39:51;11.00;;;4.85;;
59960;SDS011;55902;-37.980;-63.602;2023-04-25T00:42:20;6.65;;;4.70;;
59960;SDS011;55902;-37.980;-63.602;2023-04-25T00:44:47;7.47;;;5.50;;
59960;SDS011;55902;-37.980;-63.602;2023-04-25T00:47:14;7.32;;;4.32;;
59960;SDS011;55902;-37.980;-63.602;2023-04-25T00:49:42;7.43;;;5.30;;
59960;SDS011;55902;-37.980;-63.602;2023-04-25T00:52:09;9.45;;;5.80;;
59960;SDS011;55902;-37.980;-63.602;2023-04-25T00:54:36;10.20;;;5.97;;
59960;SDS011;55902;-37.980;-63.602;2023-04-25T00:57:04;13.95;;;7.55;;
59960;SDS011;55902;-37.980;-63.602;2023-04-25T00:59:31;16.75;;;7.93;;
59960;SDS011;55902;-37.980;-63.602;2023-04-25T01:01:58;11.73;;;7.07;;
59960;SDS011;55902;-37.980;-63.602;2023-04-25T01:04:26;14.15;;;8.32;;
59960;SDS011;55902;-37.980;-63.602;2023-04-25T01:06:54;17.02;;;8.98;;
59960;SDS011;55902;-37.980;-63.602;2023-04-25T01:09:21;15.73;;;9.90;;
59960;SDS011;55902;-37.980;-63.602;2023-04-25T01:11:49;29.45;;;23.58;;
59960;SDS011;55902;-37.980;-63.602;2023-04-25T01:14:16;57.53;;;40.47;;
59960;SDS011;55902;-37.980;-63.602;2023-04-25T01:16:43;61.60;;;42.95;;
59960;SDS011;55902;-37.980;-63.602;2023-04-25T01:19:10;61.65;;;40.88;;
59960;SDS011;55902;-37.980;-63.602;2023-04-25T01:21:37;55.78;;;35.33;;
59960;SDS011;55902;-37.980;-63.602;2023-04-25T01:24:05;54.13;;;35.83;;
59960;SDS011;55902;-37.980;-63.602;2023-04-25T01:26:33;45.58;;;26.40;;
59960;SDS011;55902;-37.980;-63.602;2023-04-25T01:29:01;36.95;;;19.63;;
59960;SDS011;55902;-37.980;-63.602;2023-04-25T01:31:29;24.17;;;12.38;;
59960;SDS011;55902;-37.980;-63.602;2023-04-25T01:33:57;15.35;;;7.95;;
59960;SDS011;55902;-37.980;-63.602;2023-04-25T01:36:24;15.20;;;7.38;;
59960;SDS011;55902;-37.980;-63.602;2023-04-25T01:38:52;15.35;;;7.93;;
59960;SDS011;55902;-37.980;-63.602;2023-04-25T01:41:19;12.45;;;6.50;;
59960;SDS011;55902;-37.980;-63.602;2023-04-25T01:43:48;14.43;;;7.25;;
59960;SDS011;55902;-37.980;-63.602;2023-04-25T01:46:16;16.27;;;6.00;;
59960;SDS011;55902;-37.980;-63.602;2023-04-25T01:52:05;10.27;;;5.30;;
59960;SDS011;55902;-37.980;-63.602;2023-04-25T01:54:32;8.77;;;5.07;;
59960;SDS011;55902;-37.980;-63.602;2023-04-25T01:56:59;7.72;;;5.20;;
59960;SDS011;55902;-37.980;-63.602;2023-04-25T01:59:27;10.35;;;5.07;;
59960;SDS011;55902;-37.980;-63.602;2023-04-25T02:01:54;9.95;;;5.20;;
59960;SDS011;55902;-37.980;-63.602;2023-04-25T02:04:21;8.77;;;4.82;;
59960;SDS011;55902;-37.980;-63.602;2023-04-25T02:06:47;8.82;;;5.00;;
59960;SDS011;55902;-37.980;-63.602;2023-04-25T02:09:14;6.40;;;5.10;;
59960;SDS011;55902;-37.980;-63.602;2023-04-25T02:11:41;9.68;;;4.75;;
59960;SDS011;55902;-37.980;-63.602;2023-04-25T02:14:08;7.38;;;5.00;;
59960;SDS011;55902;-37.980;-63.602;2023-04-25T02:16:35;7.60;;;4.90;;
59960;SDS011;55902;-37.980;-63.602;2023-04-25T02:19:02;9.10;;;5.20;;
59960;SDS011;55902;-37.980;-63.602;2023-04-25T02:21:32;10.43;;;5.03;;
59960;SDS011;55902;-37.980;-63.602;2023-04-25T02:24:03;6.47;;;5.10;;
59960;SDS011;55902;-37.980;-63.602;2023-04-25T02:26:30;8.07;;;5.10;;
59960;SDS011;55902;-37.980;-63.602;2023-04-25T02:28:57;7.50;;;4.90;;
59960;SDS011;55902;-37.980;-63.602;2023-04-25T02:31:25;8.55;;;4.97;;
59960;SDS011;55902;-37.980;-63.602;2023-04-25T02:33:52;14.60;;;5.10;;
59960;SDS011;55902;-37.980;-63.602;2023-04-25T02:36:19;7.50;;;5.05;;
59960;SDS011;55902;-37.980;-63.602;2023-04-25T02:38:49;12.32;;;5.20;;
59960;SDS011;55902;-37.980;-63.602;2023-04-25T02:41:16;6.00;;;4.82;;
59960;SDS011;55902;-37.980;-63.602;2023-04-25T02:43:43;7.32;;;4.47;;
59960;SDS011;55902;-37.980;-63.602;2023-04-25T02:46:10;7.70;;;5.13;;
59960;SDS011;55902;-37.980;-63.602;2023-04-25T02:48:37;9.50;;;5.40;;
59960;SDS011;55902;-37.980;-63.602;2023-04-25T02:51:04;9.13;;;5.20;;
59960;SDS011;55902;-37.980;-63.602;2023-04-25T02:53:31;8.95;;;4.55;;
59960;SDS011;55902;-37.980;-63.602;2023-04-25T02:55:58;9.95;;;5.00;;
59960;SDS011;55902;-37.980;-63.602;2023-04-25T02:58:25;11.80;;;5.43;;
59960;SDS011;55902;-37.980;-63.602;2023-04-25T03:00:52;8.95;;;5.15;;
59960;SDS011;55902;-37.980;-63.602;2023-04-25T03:03:19;8.45;;;4.90;;
59960;SDS011;55902;-37.980;-63.602;2023-04-25T03:05:49;10.25;;;5.40;;
59960;SDS011;55902;-37.980;-63.602;2023-04-25T03:08:17;14.07;;;6.50;;
59960;SDS011;55902;-37.980;-63.602;2023-04-25T03:14:06;13.88;;;6.78;;
59960;SDS011;55902;-37.980;-63.602;2023-04-25T03:16:33;13.68;;;6.80;;
59960;SDS011;55902;-37.980;-63.602;2023-04-25T03:19:00;16.95;;;6.75;;
59960;SDS011;55902;-37.980;-63.602;2023-04-25T03:21:28;15.95;;;7.20;;
59960;SDS011;55902;-37.980;-63.602;2023-04-25T03:23:57;13.50;;;6.60;;
59960;SDS011;55902;-37.980;-63.602;2023-04-25T03:26:24;12.68;;;6.30;;
59960;SDS011;55902;-37.980;-63.602;2023-04-25T03:28:51;11.50;;;5.60;;
59960;SDS011;55902;-37.980;-63.602;2023-04-25T03:31:19;11.50;;;5.20;;
59960;SDS011;55902;-37.980;-63.602;2023-04-25T03:33:46;9.02;;;4.90;;
59960;SDS011;55902;-37.980;-63.602;2023-04-25T03:36:13;8.85;;;5.10;;
59960;SDS011;55902;-37.980;-63.602;2023-04-25T03:38:40;7.25;;;4.82;;
59960;SDS011;55902;-37.980;-63.602;2023-04-25T03:41:07;11.32;;;4.90;;
59960;SDS011;55902;-37.980;-63.602;2023-04-25T03:43:34;7.65;;;5.00;;
59960;SDS011;55902;-37.980;-63.602;2023-04-25T03:46:01;9.32;;;5.10;;
59960;SDS011;55902;-37.980;-63.602;2023-04-25T03:48:28;8.63;;;5.10;;
59960;SDS011;55902;-37.980;-63.602;2023-04-25T03:50:55;12.55;;;5.30;;
59960;SDS011;55902;-37.980;-63.602;2023-04-25T03:53:22;9.23;;;5.70;;
59960;SDS011;55902;-37.980;-63.602;2023-04-25T03:55:49;11.52;;;6.32;;
59960;SDS011;55902;-37.980;-63.602;2023-04-25T03:58:16;13.90;;;6.95;;
59960;SDS011;55902;-37.980;-63.602;2023-04-25T04:00:43;14.63;;;7.07;;
59960;SDS011;55902;-37.980;-63.602;2023-04-25T04:03:10;10.55;;;6.07;;
59960;SDS011;55902;-37.980;-63.602;2023-04-25T04:05:37;11.68;;;6.13;;
59960;SDS011;55902;-37.980;-63.602;2023-04-25T04:08:06;12.85;;;5.97;;
59960;SDS011;55902;-37.980;-63.602;2023-04-25T04:10:33;9.18;;;4.97;;
59960;SDS011;55902;-37.980;-63.602;2023-04-25T04:23:07;6.88;;;4.72;;
59960;SDS011;55902;-37.980;-63.602;2023-04-25T04:25:34;8.32;;;4.65;;
59960;SDS011;55902;-37.980;-63.602;2023-04-25T04:28:01;6.13;;;4.75;;
59960;SDS011;55902;-37.980;-63.602;2023-04-25T04:30:28;8.82;;;4.93;;
59960;SDS011;55902;-37.980;-63.602;2023-04-25T04:32:56;8.75;;;5.40;;
59960;SDS011;55902;-37.980;-63.602;2023-04-25T04:35:23;10.52;;;5.40;;
59960;SDS011;55902;-37.980;-63.602;2023-04-25T04:37:51;9.38;;;5.25;;
59960;SDS011;55902;-37.980;-63.602;2023-04-25T04:40:18;10.43;;;5.50;;
59960;SDS011;55902;-37.980;-63.602;2023-04-25T04:42:45;10.98;;;6.40;;
59960;SDS011;55902;-37.980;-63.602;2023-04-25T04:45:13;15.43;;;6.68;;
59960;SDS011;55902;-37.980;-63.602;2023-04-25T04:47:41;14.02;;;6.63;;
59960;SDS011;55902;-37.980;-63.602;2023-04-25T04:50:09;11.82;;;6.28;;
59960;SDS011;55902;-37.980;-63.602;2023-04-25T04:52:36;19.58;;;7.30;;
59960;SDS011;55902;-37.980;-63.602;2023-04-25T04:55:04;14.32;;;6.90;;
59960;SDS011;55902;-37.980;-63.602;2023-04-25T04:57:32;13.45;;;6.82;;
59960;SDS011;55902;-37.980;-63.602;2023-04-25T04:59:59;15.40;;;6.53;;
59960;SDS011;55902;-37.980;-63.602;2023-04-25T05:02:26;13.55;;;6.32;;
59960;SDS011;55902;-37.980;-63.602;2023-04-25T05:04:53;9.23;;;6.07;;
59960;SDS011;55902;-37.980;-63.602;2023-04-25T05:07:21;12.77;;;5.63;;
59960;SDS011;55902;-37.980;-63.602;2023-04-25T05:09:48;10.20;;;5.07;;
59960;SDS011;55902;-37.980;-63.602;2023-04-25T05:12:15;8.60;;;5.50;;
59960;SDS011;55902;-37.980;-63.602;2023-04-25T05:14:42;10.63;;;4.95;;
59960;SDS011;55902;-37.980;-63.602;2023-04-25T05:17:09;8.32;;;4.80;;
59960;SDS011;55902;-37.980;-63.602;2023-04-25T05:19:36;10.05;;;5.30;;
59960;SDS011;55902;-37.980;-63.602;2023-04-25T05:22:04;8.30;;;4.93;;
59960;SDS011;55902;-37.980;-63.602;2023-04-25T05:24:31;8.40;;;5.10;;
59960;SDS011;55902;-37.980;-63.602;2023-04-25T05:26:58;9.60;;;5.25;;
59960;SDS011;55902;-37.980;-63.602;2023-04-25T05:29:25;14.45;;;6.80;;
59960;SDS011;55902;-37.980;-63.602;2023-04-25T05:31:52;13.23;;;6.20;;
59960;SDS011;55902;-37.980;-63.602;2023-04-25T05:34:19;10.25;;;5.30;;
59960;SDS011;55902;-37.980;-63.602;2023-04-25T05:36:46;10.75;;;5.50;;
59960;SDS011;55902;-37.980;-63.602;2023-04-25T05:39:16;11.07;;;5.40;;
59960;SDS011;55902;-37.980;-63.602;2023-04-25T05:41:43;11.35;;;5.70;;
59960;SDS011;55902;-37.980;-63.602;2023-04-25T05:44:10;9.07;;;5.47;;
59960;SDS011;55902;-37.980;-63.602;2023-04-25T05:46:37;12.10;;;5.78;;
59960;SDS011;55902;-37.980;-63.602;2023-04-25T05:49:05;11.40;;;5.95;;
59960;SDS011;55902;-37.980;-63.602;2023-04-25T05:51:32;16.35;;;7.05;;
59960;SDS011;55902;-37.980;-63.602;2023-04-25T05:53:59;14.85;;;7.25;;
59960;SDS011;55902;-37.980;-63.602;2023-04-25T05:56:26;21.17;;;9.25;;
59960;SDS011;55902;-37.980;-63.602;2023-04-25T05:58:53;18.70;;;8.90;;
59960;SDS011;55902;-37.980;-63.602;2023-04-25T06:01:21;13.07;;;7.15;;
59960;SDS011;55902;-37.980;-63.602;2023-04-25T06:03:48;13.50;;;6.32;;
59960;SDS011;55902;-37.980;-63.602;2023-04-25T06:06:18;8.98;;;5.80;;
59960;SDS011;55902;-37.980;-63.602;2023-04-25T06:08:45;10.82;;;6.00;;
59960;SDS011;55902;-37.980;-63.602;2023-04-25T06:11:12;12.05;;;5.80;;
59960;SDS011;55902;-37.980;-63.602;2023-04-25T06:13:39;8.32;;;5.35;;
59960;SDS011;55902;-37.980;-63.602;2023-04-25T06:16:06;9.70;;;5.03;;
59960;SDS011;55902;-37.980;-63.602;2023-04-25T06:18:33;8.93;;;5.20;;
59960;SDS011;55902;-37.980;-63.602;2023-04-25T06:21:00;9.20;;;4.90;;
59960;SDS011;55902;-37.980;-63.602;2023-04-25T06:23:27;6.50;;;4.80;;
59960;SDS011;55902;-37.980;-63.602;2023-04-25T06:25:55;8.65;;;5.57;;
59960;SDS011;55902;-37.980;-63.602;2023-04-25T06:28:22;9.13;;;5.50;;
59960;SDS011;55902;-37.980;-63.602;2023-04-25T06:30:50;12.45;;;5.57;;
59960;SDS011;55902;-37.980;-63.602;2023-04-25T06:33:17;12.98;;;6.50;;
59960;SDS011;55902;-37.980;-63.602;2023-04-25T06:35:45;15.30;;;8.15;;
59960;SDS011;55902;-37.980;-63.602;2023-04-25T06:38:12;19.25;;;10.10;;
59960;SDS011;55902;-37.980;-63.602;2023-04-25T06:40:40;18.25;;;9.00;;
59960;SDS011;55902;-37.980;-63.602;2023-04-25T06:43:07;16.13;;;8.10;;
59960;SDS011;55902;-37.980;-63.602;2023-04-25T06:45:34;16.33;;;8.05;;
59960;SDS011;55902;-37.980;-63.602;2023-04-25T06:48:01;15.88;;;7.30;;
59960;SDS011;55902;-37.980;-63.602;2023-04-25T06:50:28;12.68;;;6.60;;
59960;SDS011;55902;-37.980;-63.602;2023-04-25T06:52:55;14.48;;;7.57;;
59960;SDS011;55902;-37.980;-63.602;2023-04-25T06:55:22;16.15;;;8.30;;
59960;SDS011;55902;-37.980;-63.602;2023-04-25T06:57:49;16.40;;;7.65;;
59960;SDS011;55902;-37.980;-63.602;2023-04-25T07:00:16;11.80;;;6.68;;
59960;SDS011;55902;-37.980;-63.602;2023-04-25T07:02:43;8.25;;;5.72;;
59960;SDS011;55902;-37.980;-63.602;2023-04-25T07:05:10;11.85;;;6.35;;
59960;SDS011;55902;-37.980;-63.602;2023-04-25T07:07:37;11.35;;;7.07;;
59960;SDS011;55902;-37.980;-63.602;2023-04-25T07:10:04;12.25;;;6.78;;
59960;SDS011;55902;-37.980;-63.602;2023-04-25T07:12:32;10.52;;;6.65;;
59960;SDS011;55902;-37.980;-63.602;2023-04-25T07:14:59;13.13;;;6.35;;
59960;SDS011;55902;-37.980;-63.602;2023-04-25T07:17:31;8.85;;;5.95;;
59960;SDS011;55902;-37.980;-63.602;2023-04-25T07:19:59;8.15;;;5.90;;
59960;SDS011;55902;-37.980;-63.602;2023-04-25T07:22:26;10.65;;;5.68;;
59960;SDS011;55902;-37.980;-63.602;2023-04-25T07:24:53;8.23;;;6.07;;
59960;SDS011;55902;-37.980;-63.602;2023-04-25T07:27:20;11.30;;;6.53;;
59960;SDS011;55902;-37.980;-63.602;2023-04-25T07:29:47;10.07;;;6.50;;
59960;SDS011;55902;-37.980;-63.602;2023-04-25T07:32:14;8.88;;;6.63;;
59960;SDS011;55902;-37.980;-63.602;2023-04-25T07:34:41;10.05;;;6.03;;
59960;SDS011;55902;-37.980;-63.602;2023-04-25T07:37:08;9.40;;;6.40;;
59960;SDS011;55902;-37.980;-63.602;2023-04-25T07:39:35;12.02;;;6.57;;
59960;SDS011;55902;-37.980;-63.602;2023-04-25T07:42:02;9.07;;;6.10;;
59960;SDS011;55902;-37.980;-63.602;2023-04-25T07:44:31;12.50;;;5.95;;
59960;SDS011;55902;-37.980;-63.602;2023-04-25T07:47:06;12.02;;;6.80;;
59960;SDS011;55902;-37.980;-63.602;2023-04-25T07:49:34;7.38;;;6.07;;
59960;SDS011;55902;-37.980;-63.602;2023-04-25T07:52:02;11.30;;;6.20;;
59960;SDS011;55902;-37.980;-63.602;2023-04-25T07:54:31;8.45;;;6.25;;
59960;SDS011;55902;-37.980;-63.602;2023-04-25T07:56:58;11.50;;;6.30;;
59960;SDS011;55902;-37.980;-63.602;2023-04-25T07:59:25;11.65;;;6.28;;
59960;SDS011;55902;-37.980;-63.602;2023-04-25T08:01:52;11.65;;;6.93;;
59960;SDS011;55902;-37.980;-63.602;2023-04-25T08:04:19;8.23;;;5.90;;
59960;SDS011;55902;-37.980;-63.602;2023-04-25T08:06:46;10.85;;;6.63;;
59960;SDS011;55902;-37.980;-63.602;2023-04-25T08:09:13;12.50;;;6.38;;
59960;SDS011;55902;-37.980;-63.602;2023-04-25T08:11:41;10.00;;;6.65;;
59960;SDS011;55902;-37.980;-63.602;2023-04-25T08:14:08;9.43;;;7.15;;
59960;SDS011;55902;-37.980;-63.602;2023-04-25T08:16:35;10.02;;;6.47;;
59960;SDS011;55902;-37.980;-63.602;2023-04-25T08:19:02;8.80;;;6.30;;
59960;SDS011;55902;-37.980;-63.602;2023-04-25T08:21:30;11.00;;;6.68;;
59960;SDS011;55902;-37.980;-63.602;2023-04-25T08:23:58;10.43;;;6.60;;
59960;SDS011;55902;-37.980;-63.602;2023-04-25T08:26:25;11.23;;;6.93;;
59960;SDS011;55902;-37.980;-63.602;2023-04-25T08:28:52;8.20;;;6.10;;
59960;SDS011;55902;-37.980;-63.602;2023-04-25T08:31:19;10.30;;;6.75;;
59960;SDS011;55902;-37.980;-63.602;2023-04-25T08:33:46;11.05;;;7.00;;
59960;SDS011;55902;-37.980;-63.602;2023-04-25T08:36:14;11.65;;;6.78;;
59960;SDS011;55902;-37.980;-63.602;2023-04-25T08:38:42;9.23;;;6.15;;
59960;SDS011;55902;-37.980;-63.602;2023-04-25T08:41:10;10.93;;;6.50;;
59960;SDS011;55902;-37.980;-63.602;2023-04-25T08:43:37;9.85;;;6.68;;
59960;SDS011;55902;-37.980;-63.602;2023-04-25T08:46:16;11.57;;;6.20;;
59960;SDS011;55902;-37.980;-63.602;2023-04-25T08:48:44;10.73;;;6.45;;
59960;SDS011;55902;-37.980;-63.602;2023-04-25T08:51:15;11.63;;;6.80;;
59960;SDS011;55902;-37.980;-63.602;2023-04-25T08:53:50;9.18;;;6.97;;
59960;SDS011;55902;-37.980;-63.602;2023-04-25T08:56:18;10.88;;;6.45;;
59960;SDS011;55902;-37.980;-63.602;2023-04-25T08:58:48;10.95;;;7.10;;
59960;SDS011;55902;-37.980;-63.602;2023-04-25T09:01:16;11.02;;;7.28;;
59960;SDS011;55902;-37.980;-63.602;2023-04-25T09:03:44;11.73;;;7.22;;
59960;SDS011;55902;-37.980;-63.602;2023-04-25T09:06:12;12.07;;;7.30;;
59960;SDS011;55902;-37.980;-63.602;2023-04-25T09:08:41;9.70;;;6.63;;
59960;SDS011;55902;-37.980;-63.602;2023-04-25T09:11:08;9.98;;;7.60;;
59960;SDS011;55902;-37.980;-63.602;2023-04-25T09:13:35;10.70;;;7.57;;
59960;SDS011;55902;-37.980;-63.602;2023-04-25T09:16:02;7.22;;;6.30;;
59960;SDS011;55902;-37.980;-63.602;2023-04-25T09:18:33;11.50;;;7.85;;
59960;SDS011;55902;-37.980;-63.602;2023-04-25T09:21:07;10.73;;;7.05;;
59960;SDS011;55902;-37.980;-63.602;2023-04-25T09:23:39;8.27;;;6.68;;
59960;SDS011;55902;-37.980;-63.602;2023-04-25T09:26:15;8.13;;;6.78;;
59960;SDS011;55902;-37.980;-63.602;2023-04-25T09:28:43;9.68;;;7.35;;
59960;SDS011;55902;-37.980;-63.602;2023-04-25T09:31:11;9.75;;;7.38;;
59960;SDS011;55902;-37.980;-63.602;2023-04-25T09:33:38;13.55;;;7.25;;
59960;SDS011;55902;-37.980;-63.602;2023-04-25T09:36:08;10.00;;;7.35;;
59960;SDS011;55902;-37.980;-63.602;2023-04-25T09:38:43;12.13;;;7.15;;
59960;SDS011;55902;-37.980;-63.602;2023-04-25T09:41:12;14.27;;;7.60;;
59960;SDS011;55902;-37.980;-63.602;2023-04-25T09:43:50;11.57;;;7.50;;
59960;SDS011;55902;-37.980;-63.602;2023-04-25T09:46:17;10.88;;;6.88;;
59960;SDS011;55902;-37.980;-63.602;2023-04-25T09:48:50;10.02;;;6.75;;
59960;SDS011;55902;-37.980;-63.602;2023-04-25T09:51:19;14.55;;;7.38;;
59960;SDS011;55902;-37.980;-63.602;2023-04-25T09:53:46;8.45;;;7.28;;
59960;SDS011;55902;-37.980;-63.602;2023-04-25T09:56:16;14.05;;;7.65;;
59960;SDS011;55902;-37.980;-63.602;2023-04-25T09:58:45;10.50;;;7.40;;
59960;SDS011;55902;-37.980;-63.602;2023-04-25T10:01:15;13.00;;;7.05;;
59960;SDS011;55902;-37.980;-63.602;2023-04-25T10:03:43;9.98;;;7.28;;
59960;SDS011;55902;-37.980;-63.602;2023-04-25T10:06:13;10.75;;;6.93;;
59960;SDS011;55902;-37.980;-63.602;2023-04-25T10:08:44;11.25;;;7.28;;
59960;SDS011;55902;-37.980;-63.602;2023-04-25T10:11:16;10.82;;;6.82;;
59960;SDS011;55902;-37.980;-63.602;2023-04-25T10:13:44;9.95;;;6.82;;
59960;SDS011;55902;-37.980;-63.602;2023-04-25T10:16:13;11.90;;;8.07;;
59960;SDS011;55902;-37.980;-63.602;2023-04-25T10:18:41;12.25;;;8.27;;
59960;SDS011;55902;-37.980;-63.602;2023-04-25T10:21:08;11.85;;;7.40;;
59960;SDS011;55902;-37.980;-63.602;2023-04-25T10:23:37;9.80;;;7.50;;
59960;SDS011;55902;-37.980;-63.602;2023-04-25T10:26:06;11.15;;;7.63;;
59960;SDS011;55902;-37.980;-63.602;2023-04-25T10:31:37;14.85;;;8.57;;
59960;SDS011;55902;-37.980;-63.602;2023-04-25T10:34:12;11.73;;;7.80;;
59960;SDS011;55902;-37.980;-63.602;2023-04-25T10:49:41;13.88;;;9.20;;
59960;SDS011;55902;-37.980;-63.602;2023-04-25T10:52:13;13.35;;;9.02;;
59960;SDS011;55902;-37.980;-63.602;2023-04-25T10:54:42;11.68;;;8.18;;
59960;SDS011;55902;-37.980;-63.602;2023-04-25T11:00:00;12.02;;;7.55;;
59960;SDS011;55902;-37.980;-63.602;2023-04-25T11:02:41;11.98;;;8.10;;
59960;SDS011;55902;-37.980;-63.602;2023-04-25T11:05:10;11.77;;;7.90;;
59960;SDS011;55902;-37.980;-63.602;2023-04-25T11:07:58;10.30;;;8.05;;
59960;SDS011;55902;-37.980;-63.602;2023-04-25T11:10:29;10.77;;;8.65;;
59960;SDS011;55902;-37.980;-63.602;2023-04-25T11:12:57;14.40;;;8.73;;
59960;SDS011;55902;-37.980;-63.602;2023-04-25T11:15:25;13.38;;;8.10;;
59960;SDS011;55902;-37.980;-63.602;2023-04-25T11:17:53;13.38;;;8.80;;
59960;SDS011;55902;-37.980;-63.602;2023-04-25T11:20:20;13.65;;;8.50;;
59960;SDS011;55902;-37.980;-63.602;2023-04-25T11:22:48;14.80;;;8.52;;
59960;SDS011;55902;-37.980;-63.602;2023-04-25T11:25:15;14.32;;;8.27;;
59960;SDS011;55902;-37.980;-63.602;2023-04-25T11:30:23;15.80;;;8.02;;
59960;SDS011;55902;-37.980;-63.602;2023-04-25T11:32:51;12.38;;;8.57;;
59960;SDS011;55902;-37.980;-63.602;2023-04-25T11:35:21;14.10;;;8.43;;
59960;SDS011;55902;-37.980;-63.602;2023-04-25T11:37:50;12.35;;;7.80;;
59960;SDS011;55902;-37.980;-63.602;2023-04-25T11:40:18;12.52;;;8.77;;
59960;SDS011;55902;-37.980;-63.602;2023-04-25T11:42:45;15.57;;;8.48;;
59960;SDS011;55902;-37.980;-63.602;2023-04-25T11:45:13;14.23;;;8.30;;
59960;SDS011;55902;-37.980;-63.602;2023-04-25T11:47:40;11.82;;;8.23;;
59960;SDS011;55902;-37.980;-63.602;2023-04-25T11:50:07;12.85;;;8.50;;
59960;SDS011;55902;-37.980;-63.602;2023-04-25T11:52:42;12.13;;;8.38;;
59960;SDS011;55902;-37.980;-63.602;2023-04-25T11:55:14;10.77;;;7.63;;
59960;SDS011;55902;-37.980;-63.602;2023-04-25T11:57:46;12.48;;;7.50;;
59960;SDS011;55902;-37.980;-63.602;2023-04-25T12:00:16;9.45;;;6.97;;
59960;SDS011;55902;-37.980;-63.602;2023-04-25T12:02:51;10.35;;;7.13;;
59960;SDS011;55902;-37.980;-63.602;2023-04-25T12:05:19;9.07;;;6.82;;
59960;SDS011;55902;-37.980;-63.602;2023-04-25T12:07:50;8.75;;;6.75;;
59960;SDS011;55902;-37.980;-63.602;2023-04-25T12:10:17;9.63;;;6.65;;
59960;SDS011;55902;-37.980;-63.602;2023-04-25T12:12:45;9.77;;;6.72;;
59960;SDS011;55902;-37.980;-63.602;2023-04-25T12:15:17;8.90;;;6.53;;
59960;SDS011;55902;-37.980;-63.602;2023-04-25T12:17:49;12.50;;;6.93;;
59960;SDS011;55902;-37.980;-63.602;2023-04-25T12:20:26;9.93;;;6.47;;
59960;SDS011;55902;-37.980;-63.602;2023-04-25T12:22:53;8.63;;;6.57;;
59960;SDS011;55902;-37.980;-63.602;2023-04-25T12:25:36;11.10;;;6.68;;
59960;SDS011;55902;-37.980;-63.602;2023-04-25T12:28:20;11.20;;;6.65;;
59960;SDS011;55902;-37.980;-63.602;2023-04-25T12:31:01;11.55;;;6.50;;
59960;SDS011;55902;-37.980;-63.602;2023-04-25T12:33:30;11.35;;;6.60;;
59960;SDS011;55902;-37.980;-63.602;2023-04-25T12:36:02;12.77;;;6.68;;
59960;SDS011;55902;-37.980;-63.602;2023-04-25T12:38:42;10.13;;;6.30;;
59960;SDS011;55902;-37.980;-63.602;2023-04-25T12:41:10;9.32;;;6.22;;
59960;SDS011;55902;-37.980;-63.602;2023-04-25T12:43:58;9.55;;;6.30;;
59960;SDS011;55902;-37.980;-63.602;2023-04-25T12:46:25;9.35;;;6.10;;
59960;SDS011;55902;-37.980;-63.602;2023-04-25T12:49:04;9.50;;;6.05;;
59960;SDS011;55902;-37.980;-63.602;2023-04-25T12:51:33;10.52;;;6.25;;
59960;SDS011;55902;-37.980;-63.602;2023-04-25T12:54:02;11.95;;;6.50;;
59960;SDS011;55902;-37.980;-63.602;2023-04-25T12:56:31;11.02;;;6.10;;
59960;SDS011;55902;-37.980;-63.602;2023-04-25T12:58:58;11.27;;;6.45;;
59960;SDS011;55902;-37.980;-63.602;2023-04-25T13:01:25;9.13;;;6.35;;
59960;SDS011;55902;-37.980;-63.602;2023-04-25T13:03:53;11.40;;;6.50;;
59960;SDS011;55902;-37.980;-63.602;2023-04-25T13:06:20;7.75;;;5.22;;
59960;SDS011;55902;-37.980;-63.602;2023-04-25T13:08:47;11.55;;;6.38;;
59960;SDS011;55902;-37.980;-63.602;2023-04-25T13:11:15;12.13;;;6.20;;
59960;SDS011;55902;-37.980;-63.602;2023-04-25T13:13:43;11.25;;;6.40;;
59960;SDS011;55902;-37.980;-63.602;2023-04-25T13:16:10;14.43;;;6.70;;
59960;SDS011;55902;-37.980;-63.602;2023-04-25T13:18:41;9.52;;;5.90;;
59960;SDS011;55902;-37.980;-63.602;2023-04-25T13:21:09;9.05;;;5.88;;
59960;SDS011;55902;-37.980;-63.602;2023-04-25T13:23:37;13.10;;;6.40;;
59960;SDS011;55902;-37.980;-63.602;2023-04-25T13:26:11;8.70;;;5.80;;
59960;SDS011;55902;-37.980;-63.602;2023-04-25T13:28:40;12.32;;;6.00;;
59960;SDS011;55902;-37.980;-63.602;2023-04-25T13:31:08;10.90;;;6.55;;
59960;SDS011;55902;-37.980;-63.602;2023-04-25T13:33:58;11.05;;;7.00;;
59960;SDS011;55902;-37.980;-63.602;2023-04-25T13:36:28;9.63;;;6.60;;
59960;SDS011;55902;-37.980;-63.602;2023-04-25T13:38:57;9.88;;;6.07;;
59960;SDS011;55902;-37.980;-63.602;2023-04-25T13:41:28;9.13;;;6.10;;
59960;SDS011;55902;-37.980;-63.602;2023-04-25T13:43:55;9.15;;;5.75;;
59960;SDS011;55902;-37.980;-63.602;2023-04-25T13:46:25;10.90;;;6.03;;
59960;SDS011;55902;-37.980;-63.602;2023-04-25T13:48:52;9.38;;;5.47;;
59960;SDS011;55902;-37.980;-63.602;2023-04-25T13:51:19;9.75;;;6.10;;
59960;SDS011;55902;-37.980;-63.602;2023-04-25T13:53:46;9.35;;;5.53;;
59960;SDS011;55902;-37.980;-63.602;2023-04-25T13:56:13;12.68;;;6.28;;
59960;SDS011;55902;-37.980;-63.602;2023-04-25T13:58:41;10.77;;;5.63;;
59960;SDS011;55902;-37.980;-63.602;2023-04-25T14:01:08;10.68;;;6.00;;
59960;SDS011;55902;-37.980;-63.602;2023-04-25T14:03:38;9.30;;;5.90;;
59960;SDS011;55902;-37.980;-63.602;2023-04-25T14:06:05;9.35;;;5.78;;
59960;SDS011;55902;-37.980;-63.602;2023-04-25T14:08:34;9.25;;;5.70;;
59960;SDS011;55902;-37.980;-63.602;2023-04-25T14:11:01;8.63;;;5.45;;
59960;SDS011;55902;-37.980;-63.602;2023-04-25T14:13:28;10.32;;;5.18;;
59960;SDS011;55902;-37.980;-63.602;2023-04-25T14:15:55;13.07;;;5.50;;
59960;SDS011;55902;-37.980;-63.602;2023-04-25T14:18:23;11.10;;;5.75;;
59960;SDS011;55902;-37.980;-63.602;2023-04-25T14:20:50;8.00;;;4.97;;
59960;SDS011;55902;-37.980;-63.602;2023-04-25T14:23:17;8.98;;;5.22;;
59960;SDS011;55902;-37.980;-63.602;2023-04-25T14:25:44;9.55;;;4.93;;
59960;SDS011;55902;-37.980;-63.602;2023-04-25T14:28:16;7.90;;;5.10;;
59960;SDS011;55902;-37.980;-63.602;2023-04-25T14:30:43;9.63;;;5.35;;
59960;SDS011;55902;-37.980;-63.602;2023-04-25T14:33:10;7.57;;;5.20;;
59960;SDS011;55902;-37.980;-63.602;2023-04-25T14:35:37;8.73;;;5.40;;
59960;SDS011;55902;-37.980;-63.602;2023-04-25T14:38:05;12.18;;;5.20;;
59960;SDS011;55902;-37.980;-63.602;2023-04-25T14:40:33;8.13;;;5.13;;
59960;SDS011;55902;-37.980;-63.602;2023-04-25T14:43:00;7.65;;;5.18;;
59960;SDS011;55902;-37.980;-63.602;2023-04-25T14:45:28;9.40;;;5.05;;